Stolt Sanderling — 2GBH7 — position and weather

sailwx.info

Track history (hours):
 
Tides and Currents Weather Stations Pressure Air Temp Water Temp Dewpoint Dewpoint Depression Visibility Wind Speed Wind Dir Waves Ship Positions

Stolt Sanderling

Last reported at 2018-Jun-24 14:02 UTC. Time now 2018-Jun-24 14:59 UTC.
Position N 50°34' E 000°12'.

Length 91 m; draft 5.3 m.

Type: Ship. MMSI: 235095972.

Date/timePositionNaut miles runAvg speedWind from/ knotsBaromVisibWave heightAir tempDewpointWater temp
2018-Jun-24 14:02N 50°34' E 000°12'613.4
2018-Jun-24 13:35N 50°36' E 000°22'113.5
2018-Jun-24 13:30N 50°36' E 000°23'713.4
2018-Jun-24 13:00N 50°38' E 000°33'612.9
2018-Jun-24 12:30N 50°41' E 000°42'612.6
2018-Jun-24 12:00N 50°45' E 000°50'612.1
2018-Jun-24 11:30N 50°48' E 000°58'2810.6
2018-Jun-24 08:53N 51°06' E 001°32'410.9
2018-Jun-24 08:29N 51°09' E 001°37'510.8
2018-Jun-24 08:00N 51°12' E 001°43'611.2
2018-Jun-24 07:30N 51°17' E 001°49'612.0
2018-Jun-24 06:59N 51°22' E 001°54'611.8
2018-Jun-24 06:30N 51°27' E 001°58'713.1
2018-Jun-24 06:00N 51°32' E 002°05'613.2
2018-Jun-24 05:30N 51°37' E 002°12'713.3
2018-Jun-24 05:00N 51°42' E 002°20'713.3
2018-Jun-24 04:29N 51°46' E 002°28'612.9
2018-Jun-24 04:00N 51°51' E 002°34'612.4
2018-Jun-24 03:30N 51°56' E 002°41'612.0
2018-Jun-24 02:59N 52°00' E 002°48'611.5
2018-Jun-24 02:30N 52°02' E 002°57'611.5
2018-Jun-24 02:00N 52°02' E 003°06'711.4
2018-Jun-24 01:25N 52°03' E 003°17'511.2
2018-Jun-24 01:00N 52°03' E 003°24'610.9
2018-Jun-24 00:26N 52°04' E 003°34'510.4
2018-Jun-24 00:00N 52°07' E 003°40'1 1.1
2018-Jun-23 23:22N 52°07' E 003°40'0 0.0
2018-Jun-23 22:58N 52°07' E 003°40'0 0.1
2018-Jun-23 22:24N 52°07' E 003°40'3 6.3
2018-Jun-23 21:58N 52°06' E 003°44'5 9.5
2018-Jun-23 21:27N 52°03' E 003°51'4 9.0
2018-Jun-23 21:00N 52°02' E 003°57'611.8
2018-Jun-23 20:30N 51°59' E 004°05'612.1
2018-Jun-23 20:00N 51°56' E 004°14'3 7.0
2018-Jun-23 19:31N 51°53' E 004°18'0 0.1
2018-Jun-23 18:59N 51°53' E 004°18'  
2018-Jun-20 00:40N 51°53' E 004°18'0 0.0
2018-Jun-20 00:30N 51°53' E 004°18'1 2.2
2018-Jun-20 00:00N 51°54' E 004°17'4 7.9
2018-Jun-19 23:30N 51°56' E 004°12'4 7.7
2018-Jun-19 23:00N 51°59' E 004°06'3 6.2
2018-Jun-19 22:30N 51°57' E 004°10'2 3.1
2018-Jun-19 22:00N 51°55' E 004°12'0 0.0
2018-Jun-19 21:30N 51°55' E 004°12'0 0.0
2018-Jun-19 12:08N 51°55' E 004°12'0 0.0
2018-Jun-19 12:00N 51°55' E 004°12'0 0.5
2018-Jun-19 11:30N 51°56' E 004°12'4 8.1
2018-Jun-19 11:00N 51°58' E 004°07'510.7
2018-Jun-19 10:30N 51°60' E 003°59'510.9
2018-Jun-19 10:00N 51°59' E 003°50'4 8.0
2018-Jun-19 09:30N 51°58' E 003°44'1 1.8
2018-Jun-19 08:56N 51°57' E 003°43'0 0.0
2018-Jun-19 08:21N 51°57' E 003°43'0 0.0
2018-Jun-19 07:48N 51°57' E 003°43'0 0.0
2018-Jun-19 06:24N 51°57' E 003°43'0 0.0
2018-Jun-19 04:24N 51°57' E 003°43'0 0.1
2018-Jun-19 01:51N 51°57' E 003°42'0 0.0
2018-Jun-18 22:21N 51°57' E 003°43'0 0.0
2018-Jun-18 21:56N 51°57' E 003°43'0 0.0
2018-Jun-18 21:30N 51°57' E 003°43'0 0.0
2018-Jun-18 21:00N 51°57' E 003°43'0 0.0
2018-Jun-18 19:57N 51°57' E 003°43'3 6.4
2018-Jun-18 19:28N 51°57' E 003°38'5412.7
2018-Jun-18 15:16N 51°33' E 002°21'613.2
2018-Jun-18 14:49N 51°28' E 002°15'412.4
2018-Jun-18 14:28N 51°24' E 002°12'612.5
2018-Jun-18 14:00N 51°19' E 002°08'611.9
2018-Jun-18 13:30N 51°14' E 002°03'611.9
2018-Jun-18 12:59N 51°11' E 001°54'510.6
2018-Jun-18 12:30N 51°08' E 001°47'5 9.9
2018-Jun-18 12:00N 51°04' E 001°42'6 9.2
2018-Jun-18 11:24N 51°00' E 001°36'5 9.1
2018-Jun-18 10:51N 50°57' E 001°30'3 8.9
2018-Jun-18 10:30N 50°54' E 001°27'87 9.3
2018-Jun-18 01:12N 50°30' W 000°44'212.5
2018-Jun-18 01:00N 50°31' W 000°47'1211.9
2018-Jun-17 23:58N 50°41' W 000°60'4 9.3
2018-Jun-17 23:31N 50°44' W 001°04'612.3
2018-Jun-17 23:00N 50°46' W 001°13'4 8.3
2018-Jun-17 22:31N 50°49' W 001°18'2 4.1
2018-Jun-17 22:00N 50°50' W 001°20'0 0.0
2018-Jun-17 21:31N 50°50' W 001°20'0 0.0
2018-Jun-17 21:00N 50°50' W 001°20'0 0.0
2018-Jun-17 20:30N 50°50' W 001°20'0 0.0
2018-Jun-17 20:00N 50°50' W 001°20'0 0.0
2018-Jun-17 19:30N 50°50' W 001°20'0 0.0
2018-Jun-17 19:00N 50°50' W 001°20'0 0.0
2018-Jun-17 18:30N 50°50' W 001°20'0 0.0
2018-Jun-17 18:00N 50°50' W 001°20'0 0.0
2018-Jun-17 17:30N 50°50' W 001°20'0 0.0
2018-Jun-17 17:00N 50°50' W 001°20'0 0.0
2018-Jun-17 16:30N 50°50' W 001°20'0 0.0
2018-Jun-17 16:00N 50°50' W 001°20'0 0.0
2018-Jun-17 15:21N 50°50' W 001°20'0 0.0
2018-Jun-17 14:33N 50°50' W 001°20'0 0.0
2018-Jun-17 14:03N 50°50' W 001°20'0 0.0
2018-Jun-17 13:54N 50°50' W 001°20'0 0.0
2018-Jun-17 13:24N 50°50' W 001°20'0 0.0
2018-Jun-17 12:54N 50°50' W 001°20'0 0.0
2018-Jun-17 12:24N 50°50' W 001°20'0 0.0
2018-Jun-17 11:57N 50°50' W 001°20'0 0.0
2018-Jun-17 11:24N 50°50' W 001°20'0 0.0
2018-Jun-17 10:57N 50°50' W 001°20'0 0.0
2018-Jun-17 10:27N 50°50' W 001°20'0 0.0
2018-Jun-17 09:57N 50°50' W 001°20'0 0.0
2018-Jun-17 09:27N 50°50' W 001°20'0 0.0
2018-Jun-17 08:57N 50°50' W 001°20'0 0.0
2018-Jun-17 08:27N 50°50' W 001°20'0 0.0
2018-Jun-17 08:00N 50°50' W 001°20'0 0.0
2018-Jun-17 07:30N 50°50' W 001°20'0 0.0
2018-Jun-17 07:00N 50°50' W 001°20'0 0.0
2018-Jun-17 06:30N 50°50' W 001°20'0 0.0
2018-Jun-17 06:00N 50°50' W 001°20'0 0.0
2018-Jun-17 05:30N 50°50' W 001°20'0 0.0
2018-Jun-17 05:00N 50°50' W 001°20'0 0.0
2018-Jun-17 04:30N 50°50' W 001°20'0 0.0
2018-Jun-17 04:00N 50°50' W 001°20'0 0.0
2018-Jun-17 03:30N 50°50' W 001°20'0 0.0
2018-Jun-17 03:00N 50°50' W 001°20'0 0.0
2018-Jun-17 02:30N 50°50' W 001°20'0 0.0
2018-Jun-17 01:48N 50°50' W 001°20'0 0.0
2018-Jun-17 01:21N 50°50' W 001°20'0 0.0
2018-Jun-17 00:48N 50°50' W 001°20'0 0.0
2018-Jun-17 00:21N 50°50' W 001°20'0 0.0
2018-Jun-17 00:00N 50°50' W 001°20'0 0.0
2018-Jun-16 23:21N 50°50' W 001°20'0 0.0
2018-Jun-16 22:51N 50°50' W 001°20'0 0.0
2018-Jun-16 22:24N 50°50' W 001°20'0 0.0
2018-Jun-16 21:51N 50°50' W 001°20'0 0.0
2018-Jun-16 21:24N 50°50' W 001°20'0 0.0
2018-Jun-16 20:57N 50°50' W 001°20'0 0.0
2018-Jun-16 20:27N 50°50' W 001°20'0 0.0
2018-Jun-16 19:57N 50°50' W 001°20'0 0.0
2018-Jun-16 19:27N 50°50' W 001°20'0 0.0
2018-Jun-16 18:57N 50°50' W 001°20'0 0.0
2018-Jun-16 18:27N 50°50' W 001°20'0 0.0
2018-Jun-16 17:57N 50°50' W 001°20'0 0.0
2018-Jun-16 17:27N 50°50' W 001°20'0 0.0
2018-Jun-16 16:57N 50°50' W 001°20'0 0.0
2018-Jun-16 16:27N 50°50' W 001°20'0 0.0
2018-Jun-16 16:00N 50°50' W 001°20'0 0.0
2018-Jun-16 15:30N 50°50' W 001°20'0 0.0
2018-Jun-16 15:00N 50°50' W 001°20'0 0.0
2018-Jun-16 14:30N 50°50' W 001°20'0 0.0
2018-Jun-16 14:00N 50°50' W 001°20'0 0.0
2018-Jun-16 13:30N 50°50' W 001°20'0 0.0
2018-Jun-16 13:00N 50°50' W 001°20'0 0.0
2018-Jun-16 12:30N 50°50' W 001°20'0 0.0
2018-Jun-16 12:00N 50°50' W 001°20'0 0.0
2018-Jun-16 09:05N 50°50' W 001°20'0 0.9
2018-Jun-16 09:00N 50°50' W 001°20'3 5.7
2018-Jun-16 08:30N 50°48' W 001°16'510.3
2018-Jun-16 08:01N 50°46' W 001°09'510.7
2018-Jun-16 07:30N 50°43' W 001°02'3 6.5
2018-Jun-16 07:00N 50°42' W 000°58'4 7.2
2018-Jun-16 06:24N 50°37' W 000°55'5311.0
2018-Jun-16 01:37N 50°37' E 000°28'211.3
2018-Jun-16 01:28N 50°37' E 000°30'611.1
2018-Jun-16 00:56N 50°40' E 000°39'710.8
2018-Jun-16 00:17N 50°44' E 000°48'1310.5
2018-Jun-15 23:00N 50°52' E 001°05'610.6
2018-Jun-15 22:27N 50°56' E 001°12'611.0
2018-Jun-15 21:57N 50°59' E 001°18'511.4
2018-Jun-15 21:30N 51°03' E 001°25'712.7
2018-Jun-15 20:57N 51°07' E 001°33'613.4
2018-Jun-15 20:30N 51°11' E 001°40'612.9
2018-Jun-15 20:00N 51°16' E 001°47'612.9
2018-Jun-15 19:30N 51°21' E 001°53'612.2
2018-Jun-15 19:00N 51°26' E 001°58'611.4
2018-Jun-15 18:30N 51°31' E 002°04'610.9
2018-Jun-15 18:00N 51°35' E 002°10'610.8
2018-Jun-15 17:30N 51°39' E 002°16'510.5
2018-Jun-15 17:00N 51°43' E 002°22'510.2
2018-Jun-15 16:30N 51°46' E 002°27'5 9.9
2018-Jun-15 16:00N 51°50' E 002°33'6 9.8
2018-Jun-15 15:20N 51°55' E 002°40'4 9.7
2018-Jun-15 14:59N 51°57' E 002°44'510.1
2018-Jun-15 14:30N 52°01' E 002°49'810.8
2018-Jun-15 13:46N 52°02' E 003°02'311.4
2018-Jun-15 13:30N 52°03' E 003°06'611.7
2018-Jun-15 13:00N 52°03' E 003°16'612.2
2018-Jun-15 12:30N 52°03' E 003°26'612.6
2018-Jun-15 11:59N 52°03' E 003°37'612.3
2018-Jun-15 11:28N 52°02' E 003°47'511.3
2018-Jun-15 10:59N 52°02' E 003°56'612.8
2018-Jun-15 10:30N 51°59' E 004°04'612.8
2018-Jun-15 10:00N 51°56' E 004°13'4 8.6
2018-Jun-15 09:31N 51°53' E 004°18'0 0.0
2018-Jun-14 17:36N 51°53' E 004°18'0 0.0
2018-Jun-14 17:30N 51°53' E 004°18'0 0.3
2018-Jun-14 17:00N 51°53' E 004°18'1 2.0
2018-Jun-14 16:30N 51°54' E 004°19'1 2.6
2018-Jun-14 15:56N 51°53' E 004°21'0 0.0
2018-Jun-14 15:26N 51°53' E 004°21'0 0.0
2018-Jun-14 14:56N 51°53' E 004°21'0 0.0
2018-Jun-14 14:26N 51°53' E 004°21'  
Track history (hours):
 
Tides and Currents Weather Stations Pressure Air Temp Water Temp Dewpoint Dewpoint Depression Visibility Wind Speed Wind Dir Waves Ship Positions

Stolt Sanderling

Last reported at 2018-Jun-24 14:02 UTC. Time now 2018-Jun-24 14:59 UTC.
Position N 50°34' E 000°12'.

Length 91 m; draft 5.3 m.

Type: Ship. MMSI: 235095972.

Date/timePositionNaut miles runAvg speedWind from/ knotsBaromVisibWave heightAir tempDewpointWater temp
2018-Jun-24 14:02N 50°34' E 000°12'613.4
2018-Jun-24 13:35N 50°36' E 000°22'113.5
2018-Jun-24 13:30N 50°36' E 000°23'713.4
2018-Jun-24 13:00N 50°38' E 000°33'612.9
2018-Jun-24 12:30N 50°41' E 000°42'612.6
2018-Jun-24 12:00N 50°45' E 000°50'612.1
2018-Jun-24 11:30N 50°48' E 000°58'2810.6
2018-Jun-24 08:53N 51°06' E 001°32'410.9
2018-Jun-24 08:29N 51°09' E 001°37'510.8
2018-Jun-24 08:00N 51°12' E 001°43'611.2
2018-Jun-24 07:30N 51°17' E 001°49'612.0
2018-Jun-24 06:59N 51°22' E 001°54'611.8
2018-Jun-24 06:30N 51°27' E 001°58'713.1
2018-Jun-24 06:00N 51°32' E 002°05'613.2
2018-Jun-24 05:30N 51°37' E 002°12'713.3
2018-Jun-24 05:00N 51°42' E 002°20'713.3
2018-Jun-24 04:29N 51°46' E 002°28'612.9
2018-Jun-24 04:00N 51°51' E 002°34'612.4
2018-Jun-24 03:30N 51°56' E 002°41'612.0
2018-Jun-24 02:59N 52°00' E 002°48'611.5
2018-Jun-24 02:30N 52°02' E 002°57'611.5
2018-Jun-24 02:00N 52°02' E 003°06'711.4
2018-Jun-24 01:25N 52°03' E 003°17'511.2
2018-Jun-24 01:00N 52°03' E 003°24'610.9
2018-Jun-24 00:26N 52°04' E 003°34'510.4
2018-Jun-24 00:00N 52°07' E 003°40'1 1.1
2018-Jun-23 23:22N 52°07' E 003°40'0 0.0
2018-Jun-23 22:58N 52°07' E 003°40'0 0.1
2018-Jun-23 22:24N 52°07' E 003°40'3 6.3
2018-Jun-23 21:58N 52°06' E 003°44'5 9.5
2018-Jun-23 21:27N 52°03' E 003°51'4 9.0
2018-Jun-23 21:00N 52°02' E 003°57'611.8
2018-Jun-23 20:30N 51°59' E 004°05'612.1
2018-Jun-23 20:00N 51°56' E 004°14'3 7.0
2018-Jun-23 19:31N 51°53' E 004°18'0 0.1
2018-Jun-23 18:59N 51°53' E 004°18'  
2018-Jun-20 00:40N 51°53' E 004°18'0 0.0
2018-Jun-20 00:30N 51°53' E 004°18'1 2.2
2018-Jun-20 00:00N 51°54' E 004°17'4 7.9
2018-Jun-19 23:30N 51°56' E 004°12'4 7.7
2018-Jun-19 23:00N 51°59' E 004°06'3 6.2
2018-Jun-19 22:30N 51°57' E 004°10'2 3.1
2018-Jun-19 22:00N 51°55' E 004°12'0 0.0
2018-Jun-19 21:30N 51°55' E 004°12'0 0.0
2018-Jun-19 12:08N 51°55' E 004°12'0 0.0
2018-Jun-19 12:00N 51°55' E 004°12'0 0.5
2018-Jun-19 11:30N 51°56' E 004°12'4 8.1
2018-Jun-19 11:00N 51°58' E 004°07'510.7
2018-Jun-19 10:30N 51°60' E 003°59'510.9
2018-Jun-19 10:00N 51°59' E 003°50'4 8.0
2018-Jun-19 09:30N 51°58' E 003°44'1 1.8
2018-Jun-19 08:56N 51°57' E 003°43'0 0.0
2018-Jun-19 08:21N 51°57' E 003°43'0 0.0
2018-Jun-19 07:48N 51°57' E 003°43'0 0.0
2018-Jun-19 06:24N 51°57' E 003°43'0 0.0
2018-Jun-19 04:24N 51°57' E 003°43'0 0.1
2018-Jun-19 01:51N 51°57' E 003°42'0 0.0
2018-Jun-18 22:21N 51°57' E 003°43'0 0.0
2018-Jun-18 21:56N 51°57' E 003°43'0 0.0
2018-Jun-18 21:30N 51°57' E 003°43'0 0.0
2018-Jun-18 21:00N 51°57' E 003°43'0 0.0
2018-Jun-18 19:57N 51°57' E 003°43'3 6.4
2018-Jun-18 19:28N 51°57' E 003°38'5412.7
2018-Jun-18 15:16N 51°33' E 002°21'613.2
2018-Jun-18 14:49N 51°28' E 002°15'412.4
2018-Jun-18 14:28N 51°24' E 002°12'612.5
2018-Jun-18 14:00N 51°19' E 002°08'611.9
2018-Jun-18 13:30N 51°14' E 002°03'611.9
2018-Jun-18 12:59N 51°11' E 001°54'510.6
2018-Jun-18 12:30N 51°08' E 001°47'5 9.9
2018-Jun-18 12:00N 51°04' E 001°42'6 9.2
2018-Jun-18 11:24N 51°00' E 001°36'5 9.1
2018-Jun-18 10:51N 50°57' E 001°30'3 8.9
2018-Jun-18 10:30N 50°54' E 001°27'87 9.3
2018-Jun-18 01:12N 50°30' W 000°44'212.5
2018-Jun-18 01:00N 50°31' W 000°47'1211.9
2018-Jun-17 23:58N 50°41' W 000°60'4 9.3
2018-Jun-17 23:31N 50°44' W 001°04'612.3
2018-Jun-17 23:00N 50°46' W 001°13'4 8.3
2018-Jun-17 22:31N 50°49' W 001°18'2 4.1
2018-Jun-17 22:00N 50°50' W 001°20'0 0.0
2018-Jun-17 21:31N 50°50' W 001°20'0 0.0
2018-Jun-17 21:00N 50°50' W 001°20'0 0.0
2018-Jun-17 20:30N 50°50' W 001°20'0 0.0
2018-Jun-17 20:00N 50°50' W 001°20'0 0.0
2018-Jun-17 19:30N 50°50' W 001°20'0 0.0
2018-Jun-17 19:00N 50°50' W 001°20'0 0.0
2018-Jun-17 18:30N 50°50' W 001°20'0 0.0
2018-Jun-17 18:00N 50°50' W 001°20'0 0.0
2018-Jun-17 17:30N 50°50' W 001°20'0 0.0
2018-Jun-17 17:00N 50°50' W 001°20'0 0.0
2018-Jun-17 16:30N 50°50' W 001°20'0 0.0
2018-Jun-17 16:00N 50°50' W 001°20'0 0.0
2018-Jun-17 15:21N 50°50' W 001°20'0 0.0
2018-Jun-17 14:33N 50°50' W 001°20'0 0.0
2018-Jun-17 14:03N 50°50' W 001°20'0 0.0
2018-Jun-17 13:54N 50°50' W 001°20'0 0.0
2018-Jun-17 13:24N 50°50' W 001°20'0 0.0
2018-Jun-17 12:54N 50°50' W 001°20'0 0.0
2018-Jun-17 12:24N 50°50' W 001°20'0 0.0
2018-Jun-17 11:57N 50°50' W 001°20'0 0.0
2018-Jun-17 11:24N 50°50' W 001°20'0 0.0
2018-Jun-17 10:57N 50°50' W 001°20'0 0.0
2018-Jun-17 10:27N 50°50' W 001°20'0 0.0
2018-Jun-17 09:57N 50°50' W 001°20'0 0.0
2018-Jun-17 09:27N 50°50' W 001°20'0 0.0
2018-Jun-17 08:57N 50°50' W 001°20'0 0.0
2018-Jun-17 08:27N 50°50' W 001°20'0 0.0
2018-Jun-17 08:00N 50°50' W 001°20'0 0.0
2018-Jun-17 07:30N 50°50' W 001°20'0 0.0
2018-Jun-17 07:00N 50°50' W 001°20'0 0.0
2018-Jun-17 06:30N 50°50' W 001°20'0 0.0
2018-Jun-17 06:00N 50°50' W 001°20'0 0.0
2018-Jun-17 05:30N 50°50' W 001°20'0 0.0
2018-Jun-17 05:00N 50°50' W 001°20'0 0.0
2018-Jun-17 04:30N 50°50' W 001°20'0 0.0
2018-Jun-17 04:00N 50°50' W 001°20'0 0.0
2018-Jun-17 03:30N 50°50' W 001°20'0 0.0
2018-Jun-17 03:00N 50°50' W 001°20'0 0.0
2018-Jun-17 02:30N 50°50' W 001°20'0 0.0
2018-Jun-17 01:48N 50°50' W 001°20'0 0.0
2018-Jun-17 01:21N 50°50' W 001°20'0 0.0
2018-Jun-17 00:48N 50°50' W 001°20'0 0.0
2018-Jun-17 00:21N 50°50' W 001°20'0 0.0
2018-Jun-17 00:00N 50°50' W 001°20'0 0.0
2018-Jun-16 23:21N 50°50' W 001°20'0 0.0
2018-Jun-16 22:51N 50°50' W 001°20'0 0.0
2018-Jun-16 22:24N 50°50' W 001°20'0 0.0
2018-Jun-16 21:51N 50°50' W 001°20'0 0.0
2018-Jun-16 21:24N 50°50' W 001°20'0 0.0
2018-Jun-16 20:57N 50°50' W 001°20'0 0.0
2018-Jun-16 20:27N 50°50' W 001°20'0 0.0
2018-Jun-16 19:57N 50°50' W 001°20'0 0.0
2018-Jun-16 19:27N 50°50' W 001°20'0 0.0
2018-Jun-16 18:57N 50°50' W 001°20'0 0.0
2018-Jun-16 18:27N 50°50' W 001°20'0 0.0
2018-Jun-16 17:57N 50°50' W 001°20'0 0.0
2018-Jun-16 17:27N 50°50' W 001°20'0 0.0
2018-Jun-16 16:57N 50°50' W 001°20'0 0.0
2018-Jun-16 16:27N 50°50' W 001°20'0 0.0
2018-Jun-16 16:00N 50°50' W 001°20'0 0.0
2018-Jun-16 15:30N 50°50' W 001°20'0 0.0
2018-Jun-16 15:00N 50°50' W 001°20'0 0.0
2018-Jun-16 14:30N 50°50' W 001°20'0 0.0
2018-Jun-16 14:00N 50°50' W 001°20'0 0.0
2018-Jun-16 13:30N 50°50' W 001°20'0 0.0
2018-Jun-16 13:00N 50°50' W 001°20'0 0.0
2018-Jun-16 12:30N 50°50' W 001°20'0 0.0
2018-Jun-16 12:00N 50°50' W 001°20'0 0.0
2018-Jun-16 09:05N 50°50' W 001°20'0 0.9
2018-Jun-16 09:00N 50°50' W 001°20'3 5.7
2018-Jun-16 08:30N 50°48' W 001°16'510.3
2018-Jun-16 08:01N 50°46' W 001°09'510.7
2018-Jun-16 07:30N 50°43' W 001°02'3 6.5
2018-Jun-16 07:00N 50°42' W 000°58'4 7.2
2018-Jun-16 06:24N 50°37' W 000°55'5311.0
2018-Jun-16 01:37N 50°37' E 000°28'211.3
2018-Jun-16 01:28N 50°37' E 000°30'611.1
2018-Jun-16 00:56N 50°40' E 000°39'710.8
2018-Jun-16 00:17N 50°44' E 000°48'1310.5
2018-Jun-15 23:00N 50°52' E 001°05'610.6
2018-Jun-15 22:27N 50°56' E 001°12'611.0
2018-Jun-15 21:57N 50°59' E 001°18'511.4
2018-Jun-15 21:30N 51°03' E 001°25'712.7
2018-Jun-15 20:57N 51°07' E 001°33'613.4
2018-Jun-15 20:30N 51°11' E 001°40'612.9
2018-Jun-15 20:00N 51°16' E 001°47'612.9
2018-Jun-15 19:30N 51°21' E 001°53'612.2
2018-Jun-15 19:00N 51°26' E 001°58'611.4
2018-Jun-15 18:30N 51°31' E 002°04'610.9
2018-Jun-15 18:00N 51°35' E 002°10'610.8
2018-Jun-15 17:30N 51°39' E 002°16'510.5
2018-Jun-15 17:00N 51°43' E 002°22'510.2
2018-Jun-15 16:30N 51°46' E 002°27'5 9.9
2018-Jun-15 16:00N 51°50' E 002°33'6 9.8
2018-Jun-15 15:20N 51°55' E 002°40'4 9.7
2018-Jun-15 14:59N 51°57' E 002°44'510.1
2018-Jun-15 14:30N 52°01' E 002°49'810.8
2018-Jun-15 13:46N 52°02' E 003°02'311.4
2018-Jun-15 13:30N 52°03' E 003°06'611.7
2018-Jun-15 13:00N 52°03' E 003°16'612.2
2018-Jun-15 12:30N 52°03' E 003°26'612.6
2018-Jun-15 11:59N 52°03' E 003°37'612.3
2018-Jun-15 11:28N 52°02' E 003°47'511.3
2018-Jun-15 10:59N 52°02' E 003°56'612.8
2018-Jun-15 10:30N 51°59' E 004°04'612.8
2018-Jun-15 10:00N 51°56' E 004°13'4 8.6
2018-Jun-15 09:31N 51°53' E 004°18'0 0.0
2018-Jun-14 17:36N 51°53' E 004°18'0 0.0
2018-Jun-14 17:30N 51°53' E 004°18'0 0.3
2018-Jun-14 17:00N 51°53' E 004°18'1 2.0
2018-Jun-14 16:30N 51°54' E 004°19'1 2.6
2018-Jun-14 15:56N 51°53' E 004°21'0 0.0
2018-Jun-14 15:26N 51°53' E 004°21'0 0.0
2018-Jun-14 14:56N 51°53' E 004°21'0 0.0
2018-Jun-14 14:26N 51°53' E 004°21'  

Dump ship's entire track history